Time;durP1;ratioP1;P1;durP2;ratioP2;P2;SDS_P1;SDS_P2;PMS_P1;PMS_P2;Temp;Humidity;BMP_temperature;BMP_pressure;BME280_temperature;BME280_humidity;BME280_pressure;Samples;Min_cycle;Max_cycle;Signal;HPM_P1;HPM_P2
2023/03/23 00:00:44;;;;;;;9.35;3.42;;;10.30;99.90;;;;;;5091992;28;20411;-51
2023/03/23 00:03:09;;;;;;;8.73;3.72;;;10.60;99.90;;;;;;5092132;28;20040;-52
2023/03/23 00:05:36;;;;;;;8.30;4.22;;;9.70;99.90;;;;;;5091951;28;20040;-52
2023/03/23 00:08:03;;;;;;;7.82;4.82;;;10.60;99.90;;;;;;5092426;28;20380;-50
2023/03/23 00:10:32;;;;;;;10.30;4.78;;;10.50;99.90;;;;;;5091787;28;20079;-50
2023/03/23 00:13:02;;;;;;;9.07;5.00;;;9.90;99.90;;;;;;5092062;28;20393;-50
2023/03/23 00:15:33;;;;;;;10.00;6.22;;;10.00;99.90;;;;;;5090370;28;20036;-48
2023/03/23 00:18:02;;;;;;;12.85;6.97;;;9.80;99.90;;;;;;5092033;28;20108;-48
2023/03/23 00:20:29;;;;;;;11.60;6.22;;;10.20;99.90;;;;;;5092111;28;20146;-52
2023/03/23 00:23:00;;;;;;;12.55;7.22;;;9.90;99.90;;;;;;5095117;28;20075;-49
2023/03/23 00:25:26;;;;;;;15.38;6.80;;;10.50;99.90;;;;;;5095944;28;20031;-50
2023/03/23 00:27:51;;;;;;;11.55;6.63;;;10.20;99.90;;;;;;5095984;28;20587;-48
2023/03/23 00:30:17;;;;;;;11.30;5.82;;;10.60;99.90;;;;;;5095853;28;20051;-48
2023/03/23 00:32:43;;;;;;;10.02;5.97;;;10.00;99.90;;;;;;5095833;28;20392;-49
2023/03/23 00:35:08;;;;;;;9.60;6.07;;;10.80;99.90;;;;;;5095631;28;20044;-50
2023/03/23 00:37:35;;;;;;;10.40;5.90;;;10.10;99.90;;;;;;5095619;28;20035;-49
2023/03/23 00:40:05;;;;;;;10.90;6.18;;;9.90;99.90;;;;;;5095768;28;20050;-49
2023/03/23 00:42:36;;;;;;;13.02;7.65;;;10.90;99.90;;;;;;5095516;28;20067;-47
2023/03/23 00:45:04;;;;;;;12.80;8.40;;;10.40;99.90;;;;;;5095481;28;20044;-48
2023/03/23 00:47:30;;;;;;;15.38;9.88;;;11.00;99.90;;;;;;5095458;28;20115;-49
2023/03/23 00:49:56;;;;;;;14.40;10.57;;;10.20;99.90;;;;;;5095215;28;20559;-50
2023/03/23 00:52:22;;;;;;;15.90;11.00;;;10.50;99.90;;;;;;5095604;28;20115;-49
2023/03/23 00:54:48;;;;;;;16.92;11.90;;;9.90;99.90;;;;;;5095442;28;20062;-52
2023/03/23 00:57:13;;;;;;;18.70;14.23;;;11.10;99.90;;;;;;5095496;28;20044;-49
2023/03/23 00:59:39;;;;;;;23.35;15.43;;;10.10;99.90;;;;;;5095233;28;20460;-51
2023/03/23 01:02:05;;;;;;;23.45;16.52;;;10.10;99.90;;;;;;5095309;28;20036;-51
2023/03/23 01:04:31;;;;;;;23.15;18.23;;;11.10;99.90;;;;;;5095021;28;20032;-47
2023/03/23 01:07:00;;;;;;;22.30;16.35;;;11.20;99.90;;;;;;5094821;28;20044;-48
2023/03/23 01:09:26;;;;;;;23.92;15.07;;;11.20;99.90;;;;;;5095157;28;20399;-50
2023/03/23 01:11:55;;;;;;;20.65;12.32;;;10.60;99.90;;;;;;5095004;28;20051;-48
2023/03/23 01:14:21;;;;;;;20.63;12.25;;;10.30;99.90;;;;;;5095026;28;20048;-48
2023/03/23 01:16:46;;;;;;;16.77;10.65;;;11.10;99.90;;;;;;5094852;28;20502;-47
2023/03/23 01:19:12;;;;;;;16.85;9.50;;;10.80;99.90;;;;;;5093429;28;20058;-48
2023/03/23 01:21:38;;;;;;;14.02;8.45;;;10.30;99.90;;;;;;5094829;28;20036;-48
2023/03/23 01:24:05;;;;;;;13.60;8.20;;;10.90;99.90;;;;;;5093940;28;20040;-51
2023/03/23 01:26:30;;;;;;;12.23;7.05;;;10.90;99.90;;;;;;5094441;28;20052;-47
2023/03/23 01:28:56;;;;;;;11.25;6.40;;;10.50;99.90;;;;;;5094719;28;20039;-47
2023/03/23 01:31:24;;;;;;;10.82;5.78;;;10.00;99.90;;;;;;5094523;28;20035;-47
2023/03/23 01:33:54;;;;;;;11.25;5.95;;;10.20;99.90;;;;;;5094072;28;20161;-50
2023/03/23 01:36:22;;;;;;;10.25;5.35;;;10.60;99.90;;;;;;5094449;28;20067;-47
2023/03/23 01:38:49;;;;;;;10.63;5.57;;;10.00;99.90;;;;;;5094515;28;20488;-47
2023/03/23 01:41:17;;;;;;;12.98;6.13;;;10.50;99.90;;;;;;5094387;28;20767;-48
2023/03/23 01:44:05;;;;;;;10.10;6.53;;;10.50;99.90;;;;;;5094412;28;20032;-49
2023/03/23 01:46:35;;;;;;;12.30;7.22;;;9.90;99.90;;;;;;5094212;28;20123;-47
2023/03/23 01:49:08;;;;;;;11.82;7.43;;;9.80;99.90;;;;;;5094101;28;20039;-47
2023/03/23 01:51:38;;;;;;;14.70;8.68;;;10.50;99.90;;;;;;5094129;28;20483;-48
2023/03/23 01:54:07;;;;;;;14.63;10.35;;;9.90;99.90;;;;;;5094092;28;20043;-46
2023/03/23 01:56:44;;;;;;;17.08;10.95;;;10.60;99.90;;;;;;5094024;28;20032;-48
2023/03/23 01:59:11;;;;;;;16.73;10.73;;;10.80;99.90;;;;;;5094225;28;20093;-48
2023/03/23 02:01:40;;;;;;;17.60;10.68;;;10.40;99.90;;;;;;5094131;28;20043;-48
2023/03/23 02:04:06;;;;;;;19.27;11.32;;;10.00;99.90;;;;;;5092726;28;20157;-48
2023/03/23 02:06:32;;;;;;;17.38;11.07;;;10.30;99.90;;;;;;5094012;28;20040;-49
2023/03/23 02:08:58;;;;;;;20.13;11.77;;;11.00;99.90;;;;;;5093808;28;20032;-47
2023/03/23 02:11:23;;;;;;;17.10;10.80;;;11.00;99.90;;;;;;5093795;28;20040;-49
2023/03/23 02:13:50;;;;;;;16.17;10.02;;;10.30;99.90;;;;;;5093804;28;20438;-48
2023/03/23 02:16:28;;;;;;;19.65;10.82;;;11.00;99.90;;;;;;5092354;28;20533;-50
2023/03/23 02:19:14;;;;;;;16.13;10.07;;;10.30;99.90;;;;;;5093620;28;20062;-50
2023/03/23 02:21:58;;;;;;;16.30;9.70;;;10.50;99.90;;;;;;5093380;28;20549;-48
2023/03/23 02:24:45;;;;;;;15.45;9.55;;;10.90;99.90;;;;;;5093506;28;20404;-50
2023/03/23 02:27:26;;;;;;;20.75;9.43;;;10.50;99.90;;;;;;5093052;28;20059;-49
2023/03/23 02:30:22;;;;;;;16.23;8.73;;;11.10;99.90;;;;;;5092204;28;20046;-49
2023/03/23 02:33:11;;;;;;;16.75;8.70;;;10.50;99.90;;;;;;5093461;28;20032;-48
2023/03/23 02:35:47;;;;;;;12.93;7.97;;;11.00;99.90;;;;;;5093448;28;20055;-51
2023/03/23 02:38:26;;;;;;;16.33;8.60;;;10.60;99.90;;;;;;5093332;28;20051;-49
2023/03/23 02:40:54;;;;;;;16.45;8.00;;;11.10;99.90;;;;;;5093194;28;20472;-49
2023/03/23 02:43:27;;;;;;;27.17;8.90;;;10.50;99.90;;;;;;5093301;28;20044;-48
2023/03/23 02:45:54;;;;;;;15.45;7.78;;;11.10;99.90;;;;;;5092327;28;20067;-49
2023/03/23 02:48:24;;;;;;;12.77;7.72;;;10.50;99.90;;;;;;5091740;28;20070;-50
2023/03/23 02:50:52;;;;;;;13.60;7.93;;;10.40;99.90;;;;;;5093271;28;20040;-49
2023/03/23 02:53:22;;;;;;;15.20;7.75;;;11.00;99.90;;;;;;5093217;28;20032;-48
2023/03/23 02:55:52;;;;;;;12.70;7.15;;;11.00;99.90;;;;;;5093067;28;20400;-48
2023/03/23 02:58:19;;;;;;;14.45;7.00;;;10.50;99.90;;;;;;5091888;28;20036;-48
2023/03/23 03:00:49;;;;;;;19.33;9.00;;;11.10;99.90;;;;;;5092899;28;20044;-48
2023/03/23 03:03:19;;;;;;;15.60;7.45;;;11.10;99.90;;;;;;5091406;28;20048;-48
2023/03/23 03:06:00;;;;;;;14.35;7.60;;;11.10;99.90;;;;;;5091530;28;20052;-47
2023/03/23 03:08:28;;;;;;;13.82;7.00;;;11.00;99.90;;;;;;5092655;28;20076;-49
2023/03/23 03:11:09;;;;;;;13.80;6.93;;;10.40;99.90;;;;;;5092655;28;20036;-49
2023/03/23 03:13:59;;;;;;;12.05;6.82;;;10.60;99.90;;;;;;5092565;28;20040;-50
2023/03/23 03:16:28;;;;;;;12.30;7.53;;;10.60;99.90;;;;;;5092526;28;20531;-48
2023/03/23 03:19:11;;;;;;;12.73;6.97;;;10.60;99.90;;;;;;5092463;28;20047;-47
2023/03/23 03:21:41;;;;;;;13.90;7.65;;;11.10;99.90;;;;;;5092446;28;20050;-47
2023/03/23 03:24:11;;;;;;;14.75;7.10;;;10.20;99.90;;;;;;5092412;28;20555;-48
2023/03/23 03:26:40;;;;;;;13.40;6.78;;;10.40;99.90;;;;;;5092365;28;20052;-48
2023/03/23 03:29:07;;;;;;;15.50;6.85;;;10.30;99.90;;;;;;5092595;28;20079;-48
2023/03/23 03:31:37;;;;;;;11.70;6.35;;;10.40;99.90;;;;;;5091364;28;20048;-47
2023/03/23 03:34:03;;;;;;;14.88;7.25;;;10.70;99.90;;;;;;5092259;28;20052;-48
2023/03/23 03:36:34;;;;;;;13.63;7.00;;;10.30;99.90;;;;;;5092253;28;20040;-50
2023/03/23 03:39:07;;;;;;;13.45;6.55;;;10.30;99.90;;;;;;5092419;28;20392;-50
2023/03/23 03:41:34;;;;;;;15.68;6.90;;;10.20;99.90;;;;;;5092249;28;20079;-49
2023/03/23 03:44:00;;;;;;;13.13;7.03;;;10.90;99.90;;;;;;5092187;28;20327;-47
2023/03/23 03:46:29;;;;;;;13.93;6.88;;;10.30;99.90;;;;;;5092278;28;20123;-52
2023/03/23 03:48:56;;;;;;;12.48;6.63;;;10.50;99.90;;;;;;5091932;28;20043;-50
2023/03/23 03:51:22;;;;;;;17.35;6.90;;;10.20;99.90;;;;;;5092472;28;20488;-47
2023/03/23 03:53:48;;;;;;;14.93;7.05;;;10.30;99.90;;;;;;5090940;28;20028;-47
2023/03/23 03:56:14;;;;;;;12.68;5.93;;;10.60;99.90;;;;;;5091634;28;20047;-48
2023/03/23 03:58:42;;;;;;;8.90;4.13;;;10.30;99.90;;;;;;5092150;28;20044;-48
2023/03/23 04:01:12;;;;;;;9.52;4.13;;;10.70;99.90;;;;;;5092054;28;20078;-47
2023/03/23 04:03:38;;;;;;;12.50;5.47;;;10.10;99.90;;;;;;5091989;28;20452;-50
2023/03/23 04:06:05;;;;;;;14.38;6.40;;;10.50;99.90;;;;;;5092164;28;20046;-48
2023/03/23 04:08:31;;;;;;;13.85;7.03;;;10.00;99.90;;;;;;5091879;28;20477;-47
2023/03/23 04:10:57;;;;;;;13.43;6.55;;;10.00;99.90;;;;;;5091955;28;20042;-51
2023/03/23 04:13:23;;;;;;;13.00;5.95;;;10.20;99.90;;;;;;5073750;28;20119;-49
2023/03/23 04:15:49;;;;;;;10.68;5.53;;;10.20;99.90;;;;;;5091891;28;20036;-48
2023/03/23 04:18:16;;;;;;;12.18;5.50;;;10.70;99.90;;;;;;5091766;28;20088;-48
2023/03/23 04:20:44;;;;;;;13.68;5.03;;;10.10;99.90;;;;;;5092152;28;20084;-48
2023/03/23 04:23:10;;;;;;;12.93;5.18;;;10.10;99.90;;;;;;5091955;28;20044;-47
2023/03/23 04:25:36;;;;;;;13.20;4.55;;;10.80;99.90;;;;;;5091877;28;20407;-48
2023/03/23 04:28:02;;;;;;;10.02;4.47;;;10.10;99.90;;;;;;5091667;28;20048;-48
2023/03/23 04:30:30;;;;;;;10.35;3.90;;;10.80;99.90;;;;;;5091736;28;20048;-49
2023/03/23 04:32:56;;;;;;;9.45;4.10;;;10.70;99.90;;;;;;5091507;28;20048;-48
2023/03/23 04:35:27;;;;;;;11.65;3.58;;;10.70;99.90;;;;;;5091904;28;20484;-47
2023/03/23 04:37:54;;;;;;;8.25;3.10;;;10.10;99.90;;;;;;5091791;28;20044;-48
2023/03/23 04:40:20;;;;;;;8.13;3.15;;;10.60;99.90;;;;;;5091621;28;20079;-47
2023/03/23 04:42:46;;;;;;;8.93;2.80;;;10.50;99.90;;;;;;5091598;28;20380;-47
2023/03/23 04:45:14;;;;;;;10.77;4.18;;;10.00;99.90;;;;;;5091592;28;20044;-46
2023/03/23 04:47:40;;;;;;;9.10;3.13;;;10.40;99.90;;;;;;5090337;28;20399;-52
2023/03/23 04:50:12;;;;;;;12.23;4.13;;;10.20;99.90;;;;;;5091431;28;20040;-47
2023/03/23 04:52:40;;;;;;;9.43;3.20;;;10.40;99.90;;;;;;5091657;28;20036;-51
2023/03/23 04:55:07;;;;;;;9.50;2.90;;;10.40;99.90;;;;;;5091431;28;20043;-47
2023/03/23 04:57:34;;;;;;;10.20;2.85;;;10.30;99.90;;;;;;5091553;28;20048;-47
2023/03/23 05:00:04;;;;;;;10.18;2.70;;;9.90;99.90;;;;;;5090131;28;20063;-49
2023/03/23 05:02:30;;;;;;;12.48;3.42;;;10.40;99.90;;;;;;5091621;28;20373;-48
2023/03/23 05:04:57;;;;;;;10.10;2.83;;;10.40;99.90;;;;;;5091209;28;20097;-52
2023/03/23 05:07:23;;;;;;;12.68;2.70;;;9.90;99.90;;;;;;5091315;28;20048;-50
2023/03/23 05:09:49;;;;;;;10.05;2.83;;;10.40;99.90;;;;;;5093960;28;20048;-49
2023/03/23 05:12:15;;;;;;;12.10;2.70;;;10.30;99.90;;;;;;5093661;28;20128;-51
2023/03/23 05:14:42;;;;;;;9.95;2.47;;;10.20;99.90;;;;;;5094930;28;20437;-48
2023/03/23 05:17:08;;;;;;;14.10;2.55;;;9.90;99.90;;;;;;5095186;28;20044;-48
2023/03/23 05:19:35;;;;;;;10.82;2.72;;;9.80;99.90;;;;;;5094843;28;20123;-48
2023/03/23 05:22:02;;;;;;;10.32;2.67;;;9.90;99.90;;;;;;5094864;28;20047;-48
2023/03/23 05:24:32;;;;;;;14.55;3.10;;;10.00;99.90;;;;;;5094708;28;20040;-49
2023/03/23 05:26:59;;;;;;;11.57;3.85;;;10.10;99.90;;;;;;5094910;28;20055;-48
2023/03/23 05:29:25;;;;;;;15.48;3.40;;;10.40;99.90;;;;;;5094603;28;20048;-48
2023/03/23 05:31:52;;;;;;;16.55;5.00;;;10.40;99.90;;;;;;5094870;28;20032;-48
2023/03/23 05:34:19;;;;;;;11.50;3.03;;;10.00;99.90;;;;;;5094485;28;20040;-49
2023/03/23 05:36:45;;;;;;;16.15;3.72;;;10.10;99.90;;;;;;5094574;28;20523;-47
2023/03/23 05:39:12;;;;;;;14.32;3.28;;;10.00;99.90;;;;;;5094519;28;20079;-48
2023/03/23 05:41:39;;;;;;;17.50;3.58;;;10.50;99.90;;;;;;5094394;28;20043;-48
2023/03/23 05:44:05;;;;;;;16.30;3.45;;;10.40;99.90;;;;;;5094480;28;20059;-50
2023/03/23 05:46:30;;;;;;;15.00;3.20;;;10.20;99.90;;;;;;5094254;28;20492;-48
2023/03/23 05:48:56;;;;;;;20.10;4.07;;;10.00;99.90;;;;;;5093615;28;20028;-48
2023/03/23 05:51:22;;;;;;;18.40;3.42;;;10.40;99.90;;;;;;5092778;28;20032;-49
2023/03/23 05:53:48;;;;;;;16.98;3.88;;;10.00;99.90;;;;;;5092784;28;20114;-47
2023/03/23 05:56:14;;;;;;;19.73;3.78;;;10.20;99.90;;;;;;5092502;28;20123;-48
2023/03/23 05:58:40;;;;;;;18.33;3.88;;;10.30;99.90;;;;;;5092928;28;20097;-46
2023/03/23 06:01:09;;;;;;;21.95;4.75;;;9.90;99.90;;;;;;5092702;28;20040;-46
2023/03/23 06:03:35;;;;;;;20.42;4.90;;;10.10;99.90;;;;;;5091464;28;20519;-47
2023/03/23 06:06:02;;;;;;;23.58;3.90;;;10.20;99.90;;;;;;5092483;28;20494;-47
2023/03/23 06:08:28;;;;;;;18.08;3.47;;;9.80;99.90;;;;;;5086327;28;20052;-49
2023/03/23 06:10:55;;;;;;;17.90;3.45;;;10.10;99.90;;;;;;5080534;28;20106;-47
2023/03/23 06:13:22;;;;;;;18.77;3.58;;;10.00;99.90;;;;;;5083167;28;20400;-48
2023/03/23 06:15:49;;;;;;;18.42;3.78;;;9.90;99.90;;;;;;5081307;28;20036;-47
2023/03/23 06:18:16;;;;;;;21.63;3.50;;;10.40;99.90;;;;;;5084294;28;20064;-48
2023/03/23 06:20:43;;;;;;;22.02;3.83;;;9.90;99.90;;;;;;5092190;28;20044;-49
2023/03/23 06:23:09;;;;;;;16.13;3.35;;;10.00;99.90;;;;;;5092151;28;20069;-48
2023/03/23 06:25:35;;;;;;;21.35;3.95;;;10.30;99.90;;;;;;5090553;28;20125;-52
2023/03/23 06:28:01;;;;;;;21.60;3.22;;;10.10;99.90;;;;;;5092140;28;20079;-52
2023/03/23 06:30:26;;;;;;;15.32;3.00;;;9.60;99.90;;;;;;5091919;28;20385;-51
2023/03/23 06:32:53;;;;;;;16.85;3.20;;;10.10;99.90;;;;;;5092147;28;20105;-48
2023/03/23 06:35:19;;;;;;;13.38;2.75;;;9.60;99.90;;;;;;5091747;28;20048;-51
2023/03/23 06:37:45;;;;;;;14.63;3.03;;;9.80;99.90;;;;;;5091668;28;20052;-48
2023/03/23 06:40:11;;;;;;;15.07;3.22;;;9.60;99.90;;;;;;5090454;28;20578;-51
2023/03/23 06:42:38;;;;;;;13.98;2.60;;;9.60;99.90;;;;;;5091895;28;20153;-52
2023/03/23 06:45:05;;;;;;;15.77;3.30;;;9.80;99.90;;;;;;5091758;28;20047;-48
2023/03/23 06:47:31;;;;;;;10.65;2.30;;;9.60;99.90;;;;;;5091501;28;20177;-50
2023/03/23 06:49:59;;;;;;;14.68;2.40;;;9.70;99.90;;;;;;5090022;28;20130;-50
2023/03/23 06:52:26;;;;;;;14.93;2.35;;;9.70;99.90;;;;;;5091422;28;20547;-50
2023/03/23 06:54:52;;;;;;;8.60;1.95;;;9.70;99.90;;;;;;5091675;28;20373;-48
2023/03/23 06:57:19;;;;;;;9.52;1.90;;;9.60;99.90;;;;;;5091429;28;20040;-48
2023/03/23 06:59:45;;;;;;;10.30;1.95;;;9.70;99.90;;;;;;5091679;28;20050;-50
2023/03/23 07:02:13;;;;;;;9.90;1.98;;;9.80;99.90;;;;;;5091253;28;20399;-51
2023/03/23 07:04:40;;;;;;;9.93;2.10;;;9.60;99.90;;;;;;5091370;28;20047;-49
2023/03/23 07:07:08;;;;;;;10.75;1.85;;;9.80;99.90;;;;;;5091124;28;20072;-50
2023/03/23 07:09:34;;;;;;;13.23;2.38;;;9.90;99.90;;;;;;5091556;28;20039;-49
2023/03/23 07:12:00;;;;;;;12.77;2.85;;;9.80;99.90;;;;;;5091055;28;20047;-49
2023/03/23 07:14:26;;;;;;;16.58;3.13;;;9.70;99.90;;;;;;5090021;28;20036;-50
2023/03/23 07:16:53;;;;;;;14.98;2.30;;;9.80;99.90;;;;;;5089921;28;20032;-49
2023/03/23 07:19:19;;;;;;;21.77;3.25;;;9.80;99.90;;;;;;5090935;28;20087;-50
2023/03/23 07:21:45;;;;;;;16.02;2.85;;;10.10;99.90;;;;;;5091170;28;20081;-51
2023/03/23 07:24:14;;;;;;;15.98;2.78;;;9.80;99.90;;;;;;5091076;28;20119;-49
2023/03/23 07:26:41;;;;;;;23.40;3.40;;;10.10;99.90;;;;;;5089445;28;20143;-49
2023/03/23 07:29:08;;;;;;;17.95;3.53;;;10.20;99.90;;;;;;5089725;28;20039;-51
2023/03/23 07:31:34;;;;;;;25.05;4.22;;;10.20;99.90;;;;;;5090241;28;20093;-48
2023/03/23 07:34:00;;;;;;;19.50;4.85;;;10.00;99.90;;;;;;5090755;28;20123;-49
2023/03/23 07:36:27;;;;;;;19.02;3.67;;;10.40;99.90;;;;;;5085796;28;20044;-50
2023/03/23 07:38:53;;;;;;;18.17;4.03;;;10.50;99.90;;;;;;5079658;28;20060;-48
2023/03/23 07:41:19;;;;;;;22.02;4.32;;;10.10;99.90;;;;;;5081147;28;20463;-50
2023/03/23 07:43:45;;;;;;;22.63;4.20;;;10.20;99.90;;;;;;5080017;28;20268;-48
2023/03/23 07:46:12;;;;;;;20.83;4.28;;;10.30;99.90;;;;;;5079436;28;20043;-49
2023/03/23 07:48:38;;;;;;;23.85;4.15;;;10.50;99.90;;;;;;5081851;28;20119;-49
2023/03/23 07:51:05;;;;;;;21.33;3.88;;;10.40;99.90;;;;;;5084854;28;20072;-49
2023/03/23 07:53:31;;;;;;;29.60;4.75;;;10.50;99.90;;;;;;5090427;28;20093;-52
2023/03/23 07:55:57;;;;;;;23.80;4.03;;;10.80;99.90;;;;;;5090618;28;20044;-49
2023/03/23 07:58:23;;;;;;;23.35;4.50;;;10.50;99.90;;;;;;5088904;28;20043;-49
2023/03/23 08:00:49;;;;;;;26.10;5.18;;;10.50;99.90;;;;;;5090251;28;20047;-50
2023/03/23 08:03:15;;;;;;;27.67;5.55;;;10.80;99.90;;;;;;5090238;28;20036;-49
2023/03/23 08:05:42;;;;;;;26.45;5.03;;;10.80;99.90;;;;;;5090661;28;20047;-47
2023/03/23 08:08:09;;;;;;;23.27;4.72;;;10.60;99.90;;;;;;5090262;28;20044;-49
2023/03/23 08:10:35;;;;;;;25.02;5.50;;;10.70;99.90;;;;;;5090371;28;20083;-48
2023/03/23 08:13:01;;;;;;;21.05;4.22;;;10.60;99.90;;;;;;5068835;28;20485;-48
2023/03/23 08:15:28;;;;;;;26.00;4.55;;;10.90;99.90;;;;;;5069253;28;20046;-49
2023/03/23 08:17:54;;;;;;;25.00;5.00;;;10.60;99.90;;;;;;5070104;28;20037;-48
2023/03/23 08:20:25;;;;;;;20.92;4.40;;;11.00;99.90;;;;;;5070162;28;20041;-49
2023/03/23 08:22:56;;;;;;;24.83;4.50;;;10.70;99.90;;;;;;5070177;28;20040;-50
2023/03/23 08:25:25;;;;;;;24.95;4.15;;;11.00;99.90;;;;;;5069930;28;20496;-51
2023/03/23 08:27:52;;;;;;;24.40;4.38;;;10.80;99.90;;;;;;5069930;28;20095;-50
2023/03/23 08:30:19;;;;;;;27.27;5.03;;;11.00;99.90;;;;;;5069772;28;20436;-49
2023/03/23 08:32:46;;;;;;;29.00;6.18;;;10.90;99.90;;;;;;5070120;28;20177;-51
2023/03/23 08:35:15;;;;;;;36.28;5.30;;;10.70;99.90;;;;;;5069659;28;20111;-48
2023/03/23 08:37:41;;;;;;;27.20;5.10;;;10.90;99.90;;;;;;5068371;28;20121;-50
2023/03/23 08:40:11;;;;;;;24.55;4.32;;;10.70;99.90;;;;;;5068037;28;20041;-48
2023/03/23 08:42:42;;;;;;;22.88;4.32;;;11.00;99.90;;;;;;5070180;28;20051;-48
2023/03/23 08:45:11;;;;;;;25.77;5.55;;;11.00;99.90;;;;;;5077826;28;20062;-47
2023/03/23 08:47:37;;;;;;;23.35;4.53;;;11.00;99.90;;;;;;5082802;28;20404;-47
2023/03/23 08:50:05;;;;;;;24.40;4.30;;;11.20;99.90;;;;;;5084677;28;20063;-48
2023/03/23 08:52:31;;;;;;;21.48;4.25;;;11.30;99.90;;;;;;5083554;28;20040;-48
2023/03/23 08:54:57;;;;;;;23.48;4.55;;;11.10;99.90;;;;;;5082820;28;20392;-49
2023/03/23 08:57:24;;;;;;;26.90;4.90;;;11.40;99.90;;;;;;5082340;28;20462;-48
2023/03/23 08:59:51;;;;;;;26.58;5.15;;;11.20;99.90;;;;;;5085101;28;20041;-49
2023/03/23 09:02:17;;;;;;;23.75;4.93;;;11.20;99.90;;;;;;5088872;28;20052;-50
2023/03/23 09:04:43;;;;;;;25.38;4.80;;;11.60;99.90;;;;;;5092548;28;20051;-48
2023/03/23 09:07:10;;;;;;;21.70;4.82;;;11.50;99.90;;;;;;5093488;28;20397;-52
2023/03/23 09:09:38;;;;;;;26.67;4.65;;;11.30;99.90;;;;;;5094178;28;20531;-51
2023/03/23 09:12:04;;;;;;;28.25;5.45;;;11.60;99.90;;;;;;5089837;28;20039;-49
2023/03/23 09:14:30;;;;;;;23.85;5.43;;;11.80;99.90;;;;;;5087971;28;20043;-51
2023/03/23 09:16:55;;;;;;;27.75;5.20;;;11.80;99.90;;;;;;5093535;28;20047;-49
2023/03/23 09:19:21;;;;;;;25.65;5.25;;;11.70;99.90;;;;;;5088182;28;20380;-48
2023/03/23 09:21:46;;;;;;;24.55;5.18;;;11.70;99.90;;;;;;5083170;28;20044;-52
2023/03/23 09:24:13;;;;;;;28.00;4.43;;;11.90;99.90;;;;;;5081427;28;20051;-52
2023/03/23 09:26:38;;;;;;;25.08;5.88;;;11.90;99.90;;;;;;5091882;28;20127;-50
2023/03/23 09:29:04;;;;;;;29.40;5.88;;;11.90;99.90;;;;;;5093259;28;20115;-50
2023/03/23 09:31:31;;;;;;;28.40;4.90;;;12.00;99.90;;;;;;5093165;28;20483;-48
2023/03/23 09:33:58;;;;;;;27.30;4.47;;;11.80;99.90;;;;;;5093266;28;20040;-49
2023/03/23 09:36:25;;;;;;;27.23;4.68;;;11.70;99.90;;;;;;5093038;28;20044;-47
2023/03/23 09:38:52;;;;;;;24.60;4.68;;;11.80;99.90;;;;;;5092906;28;20048;-48
2023/03/23 09:42:06;;;;;;;27.08;5.38;;;11.80;99.90;;;;;;5093117;28;20036;-48
2023/03/23 09:44:58;;;;;;;21.73;4.53;;;11.80;99.90;;;;;;5089149;28;20123;-48
2023/03/23 09:47:31;;;;;;;26.95;4.97;;;11.90;99.90;;;;;;5092547;28;20143;-49
2023/03/23 09:50:02;;;;;;;23.60;4.65;;;12.30;99.90;;;;;;5091295;28;20094;-48
2023/03/23 09:52:49;;;;;;;20.40;4.97;;;12.40;99.90;;;;;;5092647;28;20128;-48
2023/03/23 09:55:16;;;;;;;27.85;4.88;;;12.40;99.90;;;;;;5092479;28;20039;-49
2023/03/23 09:57:42;;;;;;;24.27;4.95;;;12.50;99.90;;;;;;5092952;28;20418;-48
2023/03/23 10:00:15;;;;;;;23.10;4.85;;;12.60;99.90;;;;;;5092762;28;20052;-49
2023/03/23 10:03:04;;;;;;;24.85;4.55;;;12.50;99.90;;;;;;5092545;28;20383;-50
2023/03/23 10:05:36;;;;;;;27.10;4.15;;;12.80;99.90;;;;;;5092477;28;20097;-47
2023/03/23 10:08:12;;;;;;;25.98;5.25;;;12.90;99.90;;;;;;5092565;28;20043;-48
2023/03/23 10:11:03;;;;;;;23.75;5.35;;;12.80;99.90;;;;;;5093420;28;20119;-48
2023/03/23 10:14:02;;;;;;;21.27;4.53;;;12.70;99.90;;;;;;5093971;28;20483;-47
2023/03/23 10:16:56;;;;;;;22.70;4.13;;;12.90;99.90;;;;;;5093149;28;20309;-48
2023/03/23 10:19:35;;;;;;;19.90;4.22;;;13.10;99.90;;;;;;5093343;28;20472;-48
2023/03/23 10:22:09;;;;;;;19.67;4.25;;;13.10;99.90;;;;;;5093687;28;20044;-48
2023/03/23 10:24:48;;;;;;;16.88;3.38;;;13.10;99.90;;;;;;5093490;28;20059;-47
2023/03/23 10:27:23;;;;;;;21.02;3.97;;;13.30;99.90;;;;;;5093400;28;20131;-49
2023/03/23 10:29:59;;;;;;;21.45;3.63;;;13.30;99.90;;;;;;5093485;28;20496;-50
2023/03/23 10:33:10;;;;;;;19.13;3.47;;;13.30;99.90;;;;;;5093623;28;20040;-50
2023/03/23 10:35:42;;;;;;;16.65;3.50;;;12.80;99.90;;;;;;5089266;28;20109;-49
2023/03/23 10:38:23;;;;;;;18.48;3.47;;;12.70;99.90;;;;;;5093818;28;20392;-50
2023/03/23 10:40:59;;;;;;;20.75;4.05;;;12.50;99.90;;;;;;5093280;28;20070;-51
2023/03/23 10:43:26;;;;;;;17.70;3.55;;;12.40;99.90;;;;;;5093257;28;20123;-50
2023/03/23 10:46:04;;;;;;;20.30;3.75;;;12.30;99.90;;;;;;5093190;28;20046;-51
2023/03/23 10:48:36;;;;;;;21.08;3.78;;;12.50;99.90;;;;;;5089993;28;20051;-48
2023/03/23 10:51:03;;;;;;;;;;;12.80;99.90;;;;;;5081894;28;20041;-48
2023/03/23 10:53:34;;;;;;;18.10;3.80;;;12.80;99.90;;;;;;5081618;28;20357;-48
2023/03/23 10:56:00;;;;;;;20.48;4.75;;;12.70;99.90;;;;;;5074069;28;20032;-48
2023/03/23 10:58:35;;;;;;;15.48;3.58;;;12.90;99.90;;;;;;5072799;28;20044;-48
2023/03/23 11:01:03;;;;;;;20.98;4.25;;;12.70;99.90;;;;;;5071180;28;20118;-49
2023/03/23 11:03:32;;;;;;;19.13;4.72;;;12.70;99.90;;;;;;5072380;28;20040;-50
2023/03/23 11:06:10;;;;;;;19.55;3.70;;;12.70;99.90;;;;;;5071352;28;20059;-48
2023/03/23 11:08:48;;;;;;;21.45;4.30;;;12.70;99.90;;;;;;5071788;28;20089;-48
2023/03/23 11:11:28;;;;;;;18.67;3.45;;;12.80;99.90;;;;;;5072477;28;20093;-48
2023/03/23 11:13:59;;;;;;;19.55;3.25;;;12.70;99.90;;;;;;5071981;28;20085;-50
2023/03/23 11:16:26;;;;;;;20.40;3.42;;;12.90;99.90;;;;;;5070868;28;20102;-50
2023/03/23 11:18:52;;;;;;;17.85;3.88;;;13.10;99.90;;;;;;5072656;28;20105;-48
2023/03/23 11:21:21;;;;;;;18.55;3.78;;;13.30;99.90;;;;;;5079116;28;20036;-48
2023/03/23 11:23:53;;;;;;;15.98;3.45;;;13.60;99.90;;;;;;5071730;28;20055;-48
2023/03/23 11:26:24;;;;;;;;;;;13.70;99.90;;;;;;5072201;28;20071;-48
2023/03/23 11:29:11;;;;;;;19.08;3.55;;;13.70;99.90;;;;;;5080797;28;19920;-49
2023/03/23 11:31:43;;;;;;;18.50;3.33;;;13.40;99.90;;;;;;5081495;28;20493;-48
2023/03/23 11:34:21;;;;;;;19.08;4.20;;;13.70;99.90;;;;;;5079579;28;20036;-48
2023/03/23 11:36:49;;;;;;;18.20;3.15;;;13.70;99.90;;;;;;5079373;28;20055;-49
2023/03/23 11:39:25;;;;;;;18.63;3.92;;;13.80;99.90;;;;;;5081972;28;20086;-48
2023/03/23 11:41:51;;;;;;;16.40;3.03;;;13.60;99.90;;;;;;5080594;28;20551;-47
2023/03/23 11:44:17;;;;;;;21.85;3.67;;;13.30;99.90;;;;;;5081024;28;20519;-49
2023/03/23 11:47:09;;;;;;;15.60;3.33;;;13.20;99.90;;;;;;5082258;28;20044;-47
2023/03/23 11:50:10;;;;;;;19.65;3.85;;;13.10;99.90;;;;;;5085402;28;20045;-48
2023/03/23 11:52:54;;;;;;;22.08;3.53;;;13.20;99.90;;;;;;5079554;28;20044;-47
2023/03/23 11:55:28;;;;;;;17.08;4.07;;;13.30;99.90;;;;;;5081764;28;20079;-48
2023/03/23 11:57:55;;;;;;;17.75;3.63;;;13.60;99.90;;;;;;5080879;28;20044;-48
2023/03/23 12:00:23;;;;;;;15.85;3.58;;;13.80;99.90;;;;;;5080475;28;20051;-48
2023/03/23 12:02:56;;;;;;;17.70;3.28;;;14.00;99.90;;;;;;5082353;28;20043;-49
2023/03/23 12:06:02;;;;;;;17.90;3.08;;;14.10;99.90;;;;;;5082350;28;20097;-49
2023/03/23 12:08:49;;;;;;;17.27;2.95;;;14.00;99.90;;;;;;5082288;28;20484;-50
2023/03/23 12:11:20;;;;;;;17.98;2.92;;;14.30;99.90;;;;;;5080773;28;20059;-48
2023/03/23 12:14:16;;;;;;;10.45;2.67;;;14.50;99.90;;;;;;5080346;28;20115;-48
2023/03/23 12:16:54;;;;;;;12.93;2.53;;;14.50;99.90;;;;;;5077385;28;20521;-52
2023/03/23 12:19:32;;;;;;;17.25;3.47;;;14.70;99.90;;;;;;5085756;28;20040;-47
2023/03/23 12:22:10;;;;;;;11.40;2.42;;;14.60;99.90;;;;;;5086579;28;20044;-47
2023/03/23 12:24:46;;;;;;;17.50;2.70;;;14.60;99.90;;;;;;5086508;28;20036;-48
2023/03/23 12:27:39;;;;;;;14.30;3.15;;;14.70;99.90;;;;;;5086525;28;20060;-48
2023/03/23 12:30:29;;;;;;;13.20;2.13;;;14.60;99.90;;;;;;5085197;28;20036;-47
2023/03/23 12:33:10;;;;;;;18.23;3.20;;;14.70;99.90;;;;;;5086462;28;20232;-48
2023/03/23 12:36:06;;;;;;;16.25;2.83;;;14.70;99.90;;;;;;5086483;28;20040;-49
2023/03/23 12:38:38;;;;;;;14.95;2.85;;;14.70;99.90;;;;;;5075663;28;20048;-49
2023/03/23 12:41:31;;;;;;;18.13;3.05;;;14.80;99.90;;;;;;5075472;28;20040;-48
2023/03/23 12:44:06;;;;;;;17.27;2.80;;;14.50;99.90;;;;;;5075453;28;20049;-47
2023/03/23 12:46:44;;;;;;;16.15;2.90;;;14.20;99.90;;;;;;5075109;28;20032;-47
2023/03/23 12:49:19;;;;;;;14.00;2.25;;;14.20;99.90;;;;;;5083628;28;20032;-47
2023/03/23 12:51:50;;;;;;;14.60;2.58;;;14.30;99.90;;;;;;5094778;28;20430;-47
2023/03/23 12:54:33;;;;;;;15.45;3.25;;;14.40;99.90;;;;;;5092902;28;20050;-50